createdAt,value
2019-03-23T00:00:11.508Z,92.96
2019-03-23T00:01:11.492Z,93.21
2019-03-23T00:02:11.500Z,93.48
2019-03-23T00:03:11.475Z,92.90
2019-03-23T00:04:11.474Z,93.52
2019-03-23T00:05:11.451Z,93.01
2019-03-23T00:06:11.439Z,93.11
2019-03-23T00:07:11.428Z,93.52
2019-03-23T00:08:11.418Z,93.11
2019-03-23T00:09:11.416Z,93.41
2019-03-23T00:10:11.403Z,93.41
2019-03-23T00:11:11.387Z,93.31
2019-03-23T00:12:11.379Z,93.73
2019-03-23T00:13:11.365Z,93.21
2019-03-23T00:14:11.352Z,93.31
2019-03-23T00:15:11.336Z,93.41
2019-03-23T00:16:11.329Z,92.86
2019-03-23T00:17:11.324Z,92.24
2019-03-23T00:18:11.302Z,92.24
2019-03-23T00:19:11.302Z,92.38
2019-03-23T00:20:11.285Z,92.03
2019-03-23T00:21:11.281Z,93.11
2019-03-23T00:22:11.266Z,92.69
2019-03-23T00:23:11.254Z,93.31
2019-03-23T00:24:11.243Z,92.80
2019-03-23T00:25:11.233Z,92.59
2019-03-23T00:26:13.275Z,92.69
2019-03-23T00:27:11.218Z,93.01
2019-03-23T00:28:11.191Z,93.41
2019-03-23T00:29:11.188Z,93.41
2019-03-23T00:30:11.171Z,93.31
2019-03-23T00:31:11.184Z,93.01
2019-03-23T00:32:11.174Z,93.62
2019-03-23T00:33:11.143Z,92.90
2019-03-23T00:34:11.130Z,93.52
2019-03-23T00:35:11.126Z,93.01
2019-03-23T00:36:11.112Z,92.90
2019-03-23T00:37:11.110Z,93.62
2019-03-23T00:38:11.081Z,92.90
2019-03-23T00:39:11.064Z,93.52
2019-03-23T00:40:11.068Z,93.01
2019-03-23T00:41:11.052Z,93.41
2019-03-23T00:42:11.033Z,92.90
2019-03-23T00:43:11.036Z,92.80
2019-03-23T00:44:11.013Z,92.80
2019-03-23T00:45:11.009Z,93.46
2019-03-23T00:46:11.004Z,93.11
2019-03-23T00:47:10.993Z,93.21
2019-03-23T00:48:11.034Z,92.69
2019-03-23T00:49:10.967Z,92.43
2019-03-23T00:50:10.957Z,92.18
2019-03-23T00:51:10.934Z,93.35
2019-03-23T00:52:10.930Z,92.29
2019-03-23T00:53:10.983Z,93.31
2019-03-23T00:54:10.908Z,92.90
2019-03-23T00:55:10.928Z,93.31
2019-03-23T00:56:10.882Z,92.69
2019-03-23T00:57:10.879Z,92.69
2019-03-23T00:58:10.865Z,92.69
2019-03-23T00:59:10.859Z,92.63
2019-03-23T01:00:10.843Z,93.05
2019-03-23T01:01:10.831Z,93.62
2019-03-23T01:02:10.818Z,92.63
2019-03-23T01:03:10.809Z,92.49
2019-03-23T01:04:10.799Z,92.43
2019-03-23T01:05:10.787Z,92.63
2019-03-23T01:06:10.780Z,92.94
2019-03-23T01:07:10.764Z,93.66
2019-03-23T01:08:10.752Z,92.84
2019-03-23T01:09:10.745Z,92.63
2019-03-23T01:10:10.745Z,93.15
2019-03-23T01:11:10.730Z,93.15
2019-03-23T01:12:10.712Z,93.35
2019-03-23T01:13:10.698Z,92.84
2019-03-23T01:14:10.683Z,93.56
2019-03-23T01:15:10.672Z,92.63
2019-03-23T01:16:10.661Z,92.74
2019-03-23T01:17:10.649Z,93.25
2019-03-23T01:18:10.641Z,92.74
2019-03-23T01:19:10.626Z,92.53
2019-03-23T01:20:10.610Z,92.84
2019-03-23T01:21:10.602Z,92.43
2019-03-23T01:22:10.586Z,92.63
2019-03-23T01:23:10.576Z,92.63
2019-03-23T01:24:10.566Z,92.53
2019-03-23T01:25:10.562Z,92.63
2019-03-23T01:26:10.661Z,93.56
2019-03-23T01:27:10.534Z,93.56
2019-03-23T01:28:10.521Z,93.46
2019-03-23T01:29:10.528Z,93.15
2019-03-23T01:30:10.497Z,92.94
2019-03-23T01:31:10.491Z,93.15
2019-03-23T01:32:10.474Z,93.60
2019-03-23T01:33:10.467Z,93.66
2019-03-23T01:34:10.463Z,93.35
2019-03-23T01:35:10.453Z,93.66
2019-03-23T01:36:10.443Z,93.60
2019-03-23T01:37:10.427Z,93.46
2019-03-23T01:38:10.406Z,93.19
2019-03-23T01:39:10.402Z,93.35
2019-03-23T01:40:10.395Z,93.56
2019-03-23T01:41:10.377Z,93.56
2019-03-23T01:42:10.368Z,92.84
2019-03-23T01:43:10.363Z,92.84
2019-03-23T01:44:10.356Z,92.74
2019-03-23T01:45:10.352Z,92.84
2019-03-23T01:46:10.321Z,92.74
2019-03-23T01:47:10.308Z,92.84
2019-03-23T01:48:10.306Z,92.84
2019-03-23T01:49:10.291Z,92.74
2019-03-23T01:50:10.287Z,93.25
2019-03-23T01:51:10.275Z,93.15
2019-03-23T01:52:10.259Z,92.84
2019-03-23T01:53:10.244Z,92.63
2019-03-23T01:54:10.250Z,92.63
2019-03-23T01:55:10.226Z,93.50
2019-03-23T01:56:10.215Z,93.09
2019-03-23T01:57:10.204Z,93.91
2019-03-23T01:58:10.191Z,93.77
2019-03-23T01:59:10.180Z,93.66
2019-03-23T02:00:10.182Z,93.35
2019-03-23T02:01:10.163Z,92.63
2019-03-23T02:02:10.149Z,92.33
2019-03-23T02:03:10.145Z,93.71
2019-03-23T02:04:10.124Z,93.05
2019-03-23T02:05:10.120Z,92.74
2019-03-23T02:06:10.105Z,93.71
2019-03-23T02:07:14.070Z,92.99
2019-03-23T02:08:10.078Z,93.71
2019-03-23T02:09:10.068Z,93.50
2019-03-23T02:10:10.055Z,93.09
2019-03-23T02:11:10.044Z,93.30
2019-03-23T02:12:10.036Z,93.40
2019-03-23T02:13:10.027Z,93.60
2019-03-23T02:14:10.021Z,93.50
2019-03-23T02:15:10.000Z,93.19
2019-03-23T02:16:10.019Z,94.02
2019-03-23T02:17:09.978Z,94.12
2019-03-23T02:18:09.972Z,94.12
2019-03-23T02:19:09.957Z,93.87
2019-03-23T02:20:09.945Z,93.66
2019-03-23T02:21:09.939Z,93.56
2019-03-23T02:22:09.939Z,92.84
2019-03-23T02:23:09.907Z,92.94
2019-03-23T02:24:09.901Z,92.43
2019-03-23T02:25:09.892Z,93.30
2019-03-23T02:26:09.877Z,92.68
2019-03-23T02:27:09.877Z,93.09
2019-03-23T02:28:09.855Z,93.60
2019-03-23T02:29:09.839Z,93.40
2019-03-23T02:30:09.836Z,93.30
2019-03-23T02:31:09.822Z,93.54
2019-03-23T02:32:09.824Z,93.54
2019-03-23T02:33:09.802Z,94.17
2019-03-23T02:34:09.791Z,93.91
2019-03-23T02:35:09.779Z,93.40
2019-03-23T02:36:09.775Z,93.40
2019-03-23T02:37:09.758Z,93.40
2019-03-23T02:38:09.758Z,93.40
2019-03-23T02:39:09.742Z,93.91
2019-03-23T02:40:09.721Z,93.05
2019-03-23T02:41:09.712Z,92.88
2019-03-23T02:42:09.705Z,92.84
2019-03-23T02:43:09.691Z,92.47
2019-03-23T02:44:09.686Z,92.47
2019-03-23T02:45:09.687Z,92.78
2019-03-23T02:46:09.654Z,93.25
2019-03-23T02:47:09.651Z,92.88
2019-03-23T02:48:09.656Z,92.78
2019-03-23T02:49:09.638Z,92.68
2019-03-23T02:50:09.622Z,93.71
2019-03-23T02:51:09.597Z,93.50
2019-03-23T02:52:09.621Z,93.54
2019-03-23T02:53:09.598Z,93.75
2019-03-23T02:54:09.571Z,93.96
2019-03-23T02:55:09.575Z,94.06
2019-03-23T02:56:09.546Z,94.12
2019-03-23T02:57:09.527Z,93.44
2019-03-23T02:58:09.526Z,93.91
2019-03-23T02:59:09.511Z,93.91
2019-03-23T03:00:09.531Z,93.96
2019-03-23T03:01:09.495Z,94.06
2019-03-23T03:02:09.487Z,93.34
2019-03-23T03:03:09.499Z,93.44
2019-03-23T03:04:09.463Z,94.47
2019-03-23T03:05:09.454Z,94.10
2019-03-23T03:06:09.477Z,94.52
2019-03-23T03:07:09.421Z,94.42
2019-03-23T03:08:09.484Z,94.82
2019-03-23T03:09:09.406Z,94.82
2019-03-23T03:10:09.378Z,94.93
2019-03-23T03:11:09.384Z,94.82
2019-03-23T03:12:09.363Z,94.42
2019-03-23T03:13:09.354Z,94.42
2019-03-23T03:14:09.342Z,94.72
2019-03-23T03:15:09.336Z,94.52
2019-03-23T03:16:09.329Z,94.42
2019-03-23T03:17:09.335Z,94.31
2019-03-23T03:18:09.336Z,94.93
2019-03-23T03:19:09.290Z,95.45
2019-03-23T03:20:09.281Z,95.65
2019-03-23T03:21:09.266Z,95.07
2019-03-23T03:22:09.262Z,94.97
2019-03-23T03:23:09.249Z,95.90
2019-03-23T03:24:09.236Z,95.90
2019-03-23T03:25:09.234Z,96.01
2019-03-23T03:26:09.209Z,95.80
2019-03-23T03:27:09.206Z,95.59
2019-03-23T03:28:17.825Z,95.49
2019-03-23T03:29:51.337Z,95.70
2019-03-23T03:30:51.307Z,95.49
2019-03-23T03:33:00.561Z,95.59
2019-03-23T03:34:00.540Z,95.39
2019-03-23T03:35:00.732Z,95.53
2019-03-23T03:36:00.522Z,95.07
2019-03-23T03:37:00.504Z,95.74
2019-03-23T03:38:00.503Z,95.53
2019-03-23T03:39:00.489Z,96.26
2019-03-23T03:40:00.558Z,96.05
2019-03-23T03:41:00.475Z,96.47
2019-03-23T03:42:00.454Z,96.56
2019-03-23T03:43:09.121Z,96.77
2019-03-23T03:44:42.635Z,96.36
2019-03-23T03:45:42.588Z,96.56
2019-03-23T03:46:42.579Z,96.56
2019-03-23T03:47:42.571Z,96.61
2019-03-23T03:48:42.557Z,96.82
2019-03-23T03:49:42.548Z,96.56
2019-03-23T03:50:42.532Z,96.98
2019-03-23T03:51:42.524Z,96.61
2019-03-23T03:52:42.512Z,97.75
2019-03-23T03:53:42.511Z,97.29
2019-03-23T03:54:42.489Z,96.56
2019-03-23T03:55:42.500Z,96.67
2019-03-23T03:56:42.469Z,96.56
2019-03-23T03:57:42.474Z,96.36
2019-03-23T03:58:42.471Z,95.95
2019-03-23T03:59:42.441Z,96.36
2019-03-23T04:00:42.434Z,96.36
2019-03-23T04:01:42.418Z,96.98
2019-03-23T04:02:42.421Z,96.98
2019-03-23T04:03:42.447Z,96.88
2019-03-23T04:04:42.384Z,97.50
2019-03-23T04:05:42.374Z,97.39
2019-03-23T04:06:42.367Z,96.88
2019-03-23T04:07:42.357Z,96.98
2019-03-23T04:08:42.336Z,97.08
2019-03-23T04:09:42.328Z,96.67
2019-03-23T04:10:42.316Z,96.67
2019-03-23T04:11:42.316Z,96.26
2019-03-23T04:12:42.295Z,96.77
2019-03-23T04:13:42.281Z,96.05
2019-03-23T04:14:42.285Z,96.47
2019-03-23T04:15:42.269Z,96.26
2019-03-23T04:16:42.254Z,96.56
2019-03-23T04:17:42.256Z,96.47
2019-03-23T04:18:42.229Z,97.08
2019-03-23T04:19:42.220Z,96.26
2019-03-23T04:20:42.226Z,96.56
2019-03-23T04:21:42.214Z,96.26
2019-03-23T04:22:42.193Z,96.47
2019-03-23T04:23:42.207Z,96.67
2019-03-23T04:24:42.210Z,97.19
2019-03-23T04:25:42.161Z,96.47
2019-03-23T04:26:42.149Z,96.26
2019-03-23T04:27:42.180Z,96.42
2019-03-23T04:28:42.136Z,96.31
2019-03-23T04:29:42.176Z,95.84
2019-03-23T04:30:42.104Z,96.31
2019-03-23T04:31:42.101Z,96.52
2019-03-23T04:32:42.101Z,96.67
2019-03-23T04:33:42.080Z,96.01
2019-03-23T04:34:42.074Z,96.11
2019-03-23T04:35:42.076Z,95.49
2019-03-23T04:36:42.035Z,95.49
2019-03-23T04:37:42.036Z,95.28
2019-03-23T04:38:42.019Z,95.49
2019-03-23T04:39:42.017Z,95.80
2019-03-23T04:40:42.019Z,95.59
2019-03-23T04:41:42.020Z,95.18
2019-03-23T04:42:41.977Z,94.46
2019-03-23T04:43:41.965Z,94.77
2019-03-23T04:44:41.978Z,95.70
2019-03-23T04:45:41.949Z,94.56
2019-03-23T04:46:43.948Z,95.70
2019-03-23T04:47:41.918Z,95.39
2019-03-23T04:48:41.922Z,95.28
2019-03-23T04:49:41.903Z,95.90
2019-03-23T04:50:41.903Z,95.64
2019-03-23T04:51:41.893Z,95.43
2019-03-23T04:52:41.883Z,95.32
2019-03-23T04:53:41.854Z,96.26
2019-03-23T04:54:41.845Z,96.47
2019-03-23T04:55:41.843Z,96.15
2019-03-23T04:56:41.829Z,95.84
2019-03-23T04:57:41.834Z,95.49
2019-03-23T04:58:41.804Z,95.80
2019-03-23T04:59:41.791Z,95.59
2019-03-23T05:00:41.804Z,95.59
2019-03-23T05:01:41.771Z,94.46
2019-03-23T05:02:41.774Z,94.97
2019-03-23T05:03:41.769Z,95.39
2019-03-23T05:04:41.785Z,94.97
2019-03-23T05:05:41.732Z,94.87
2019-03-23T05:06:42.676Z,94.77
2019-03-23T05:07:41.712Z,94.87
2019-03-23T05:08:41.702Z,94.46
2019-03-23T05:09:41.705Z,94.35
2019-03-23T05:10:41.686Z,95.84
2019-03-23T05:11:41.658Z,95.64
2019-03-23T05:12:41.656Z,95.53
2019-03-23T05:13:41.650Z,95.59
2019-03-23T05:14:41.671Z,95.84
2019-03-23T05:15:41.648Z,94.77
2019-03-23T05:16:41.639Z,94.87
2019-03-23T05:17:41.600Z,95.02
2019-03-23T05:18:41.588Z,95.02
2019-03-23T05:19:41.590Z,95.95
2019-03-23T05:20:41.569Z,95.53
2019-03-23T05:21:41.601Z,95.74
2019-03-23T05:22:41.532Z,95.84
2019-03-23T05:23:41.522Z,96.15
2019-03-23T05:24:41.514Z,96.01
2019-03-23T05:25:41.561Z,95.70
2019-03-23T05:26:41.500Z,94.67
2019-03-23T05:27:41.530Z,94.67
2019-03-23T05:28:41.478Z,94.56
2019-03-23T05:29:41.481Z,94.40
2019-03-23T05:30:41.463Z,94.29
2019-03-23T05:31:41.449Z,94.97
2019-03-23T05:32:41.439Z,94.97
2019-03-23T05:33:41.419Z,95.22
2019-03-23T05:34:41.413Z,95.53
2019-03-23T05:35:41.401Z,95.74
2019-03-23T05:36:41.391Z,95.74
2019-03-23T05:37:41.419Z,96.26
2019-03-23T05:38:44.540Z,95.84
2019-03-23T05:39:41.359Z,96.15
2019-03-23T05:40:41.343Z,95.74
2019-03-23T05:41:41.345Z,95.84
2019-03-23T05:42:41.324Z,95.64
2019-03-23T05:43:41.322Z,95.74
2019-03-23T05:44:41.298Z,95.95
2019-03-23T05:45:41.290Z,95.84
2019-03-23T05:46:41.278Z,95.32
2019-03-23T05:47:41.275Z,95.53
2019-03-23T05:48:41.308Z,95.74
2019-03-23T05:49:41.253Z,95.64
2019-03-23T05:50:41.237Z,96.47
2019-03-23T05:51:41.219Z,95.59
2019-03-23T05:52:41.216Z,95.49
2019-03-23T05:53:41.207Z,94.35
2019-03-23T05:54:41.208Z,94.97
2019-03-23T05:55:41.177Z,94.72
2019-03-23T05:56:41.171Z,94.87
2019-03-23T05:57:41.166Z,94.87
2019-03-23T05:58:41.154Z,94.56
2019-03-23T05:59:41.140Z,94.87
2019-03-23T06:00:41.123Z,94.52
2019-03-23T06:01:41.115Z,94.87
2019-03-23T06:02:41.100Z,94.25
2019-03-23T06:03:41.089Z,94.87
2019-03-23T06:04:41.083Z,94.31
2019-03-23T06:05:41.070Z,94.21
2019-03-23T06:06:41.077Z,94.00
2019-03-23T06:07:41.128Z,93.69
2019-03-23T06:08:41.042Z,93.79
2019-03-23T06:09:41.037Z,94.10
2019-03-23T06:10:41.021Z,93.69
2019-03-23T06:11:41.013Z,93.49
2019-03-23T06:12:41.034Z,93.49
2019-03-23T06:13:40.990Z,93.59
2019-03-23T06:14:40.985Z,94.00
2019-03-23T06:15:40.962Z,94.10
2019-03-23T06:16:40.950Z,94.10
2019-03-23T06:17:40.957Z,93.69
2019-03-23T06:18:40.985Z,93.69
2019-03-23T06:19:40.919Z,93.59
2019-03-23T06:20:40.921Z,93.85
2019-03-23T06:21:42.702Z,93.90
2019-03-23T06:22:40.894Z,93.90
2019-03-23T06:23:40.893Z,93.85
2019-03-23T06:24:40.860Z,93.85
2019-03-23T06:25:41.060Z,93.65
2019-03-23T06:26:40.843Z,94.17
2019-03-23T06:27:40.872Z,93.50
2019-03-23T06:28:40.818Z,92.99
2019-03-23T06:29:40.809Z,92.74
2019-03-23T06:30:40.847Z,92.53
2019-03-23T06:31:40.793Z,92.63
2019-03-23T06:32:40.793Z,92.53
2019-03-23T06:33:40.800Z,91.60
2019-03-23T06:34:40.768Z,91.71
2019-03-23T06:35:40.736Z,91.66
2019-03-23T06:36:40.728Z,91.87
2019-03-23T06:37:40.717Z,91.36
2019-03-23T06:38:40.711Z,91.15
2019-03-23T06:39:40.708Z,90.59
2019-03-23T06:40:40.737Z,90.69
2019-03-23T06:41:40.677Z,90.90
2019-03-23T06:42:40.657Z,90.80
2019-03-23T06:43:40.652Z,90.59
2019-03-23T06:44:40.699Z,90.24
2019-03-23T06:45:40.646Z,90.59
2019-03-23T06:46:40.629Z,91.11
2019-03-23T06:47:40.648Z,90.45
2019-03-23T06:48:40.598Z,90.03
2019-03-23T06:49:40.592Z,90.08
2019-03-23T06:50:40.576Z,90.03
2019-03-23T06:51:40.609Z,89.83
2019-03-23T06:52:40.556Z,89.94
2019-03-23T06:53:40.602Z,90.34
2019-03-23T06:54:40.527Z,90.34
2019-03-23T06:55:40.543Z,90.20
2019-03-23T06:56:40.550Z,90.41
2019-03-23T06:57:40.504Z,89.17
2019-03-23T06:58:40.492Z,89.38
2019-03-23T06:59:40.479Z,88.86
2019-03-23T07:00:40.463Z,88.96
2019-03-23T07:01:40.463Z,88.45
2019-03-23T07:02:40.475Z,88.45
2019-03-23T07:03:40.437Z,88.00
2019-03-23T07:04:40.422Z,88.10
2019-03-23T07:05:40.403Z,88.10
2019-03-23T07:06:40.399Z,88.17
2019-03-23T07:07:40.405Z,87.69
2019-03-23T07:08:40.373Z,88.00
2019-03-23T07:09:40.366Z,88.17
2019-03-23T07:10:40.363Z,87.96
2019-03-23T07:11:40.365Z,87.65
2019-03-23T07:12:40.345Z,87.55
2019-03-23T07:13:40.354Z,87.45
2019-03-23T07:14:40.380Z,87.24
2019-03-23T07:15:40.301Z,87.10
2019-03-23T07:16:40.284Z,86.48
2019-03-23T07:17:40.374Z,86.27
2019-03-23T07:18:40.279Z,85.97
2019-03-23T07:19:40.271Z,86.17
2019-03-23T07:20:40.291Z,85.14
2019-03-23T07:21:40.230Z,85.31
2019-03-23T07:22:40.224Z,85.31
2019-03-23T07:23:40.222Z,85.62
2019-03-23T07:24:40.214Z,85.62
2019-03-23T07:25:40.194Z,85.31
2019-03-23T07:26:40.182Z,85.52
2019-03-23T07:27:40.195Z,85.52
2019-03-23T07:28:40.154Z,85.21
2019-03-23T07:29:40.164Z,85.47
2019-03-23T07:30:40.142Z,84.04
2019-03-23T07:31:40.138Z,84.04
2019-03-23T07:32:40.117Z,83.94
2019-03-23T07:33:40.105Z,84.14
2019-03-23T07:34:40.094Z,84.14
2019-03-23T07:35:40.117Z,85.17
2019-03-23T07:36:40.076Z,84.34
2019-03-23T07:37:40.108Z,84.00
2019-03-23T07:38:40.049Z,83.49
2019-03-23T07:39:40.035Z,83.80
2019-03-23T07:40:40.056Z,83.59
2019-03-23T07:41:40.022Z,84.00
2019-03-23T07:42:40.011Z,83.86
2019-03-23T07:43:40.027Z,83.96
2019-03-23T07:44:40.012Z,83.65
2019-03-23T07:45:39.973Z,83.00
2019-03-23T07:46:39.966Z,83.55
2019-03-23T07:47:40.072Z,82.39
2019-03-23T07:48:39.931Z,82.49
2019-03-23T07:49:39.921Z,81.46
2019-03-23T07:50:39.919Z,81.26
2019-03-23T07:51:40.031Z,81.67
2019-03-23T07:52:39.903Z,81.87
2019-03-23T07:53:39.895Z,81.67
2019-03-23T07:54:39.868Z,81.94
2019-03-23T07:55:39.855Z,81.63
2019-03-23T07:56:39.929Z,82.24
2019-03-23T07:57:39.849Z,82.14
2019-03-23T07:58:39.833Z,81.73
2019-03-23T07:59:39.819Z,81.43
2019-03-23T08:00:41.022Z,81.08
2019-03-23T08:01:39.818Z,80.77
2019-03-23T08:02:39.786Z,80.67
2019-03-23T08:03:39.785Z,80.53
2019-03-23T08:04:39.775Z,80.46
2019-03-23T08:05:39.743Z,80.57
2019-03-23T08:06:39.766Z,80.74
2019-03-23T08:07:39.791Z,80.33
2019-03-23T08:08:39.747Z,80.33
2019-03-23T08:09:39.705Z,80.74
2019-03-23T08:10:39.710Z,80.29
2019-03-23T08:11:39.730Z,80.29
2019-03-23T08:12:40.055Z,80.19
2019-03-23T08:13:39.658Z,79.88
2019-03-23T08:14:39.645Z,79.84
2019-03-23T08:15:39.653Z,79.53
2019-03-23T08:16:39.634Z,79.57
2019-03-23T08:17:39.612Z,79.13
2019-03-23T08:18:39.606Z,79.23
2019-03-23T08:19:39.597Z,79.64
2019-03-23T08:20:39.589Z,79.43
2019-03-23T08:21:39.581Z,79.13
2019-03-23T08:22:39.573Z,79.33
2019-03-23T08:23:39.623Z,79.19
2019-03-23T08:24:39.561Z,78.78
2019-03-23T08:25:39.570Z,78.64
2019-03-23T08:26:39.525Z,78.44
2019-03-23T08:27:41.578Z,78.64
2019-03-23T08:28:39.533Z,78.64
2019-03-23T08:29:39.489Z,78.03
2019-03-23T08:30:39.681Z,78.03
2019-03-23T08:31:39.468Z,78.03
2019-03-23T08:32:39.470Z,77.89
2019-03-23T08:33:39.454Z,77.69
2019-03-23T08:34:39.429Z,77.59
2019-03-23T08:35:39.425Z,76.77
2019-03-23T08:36:39.597Z,76.84
2019-03-23T08:37:39.430Z,76.93
2019-03-23T08:38:39.393Z,76.43
2019-03-23T08:39:48.157Z,76.32
2019-03-23T08:40:40.367Z,76.32
2019-03-23T08:41:39.356Z,76.22
2019-03-23T08:42:39.338Z,76.12
2019-03-23T08:43:39.439Z,76.32
2019-03-23T08:44:39.329Z,76.43
2019-03-23T08:45:39.342Z,76.32
2019-03-23T08:46:39.310Z,76.19
2019-03-23T08:47:39.284Z,75.27
2019-03-23T08:48:39.269Z,75.57
2019-03-23T08:49:39.268Z,75.07
2019-03-23T08:50:39.261Z,75.13
2019-03-23T08:51:39.233Z,74.52
2019-03-23T08:52:39.243Z,72.75
2019-03-23T08:53:39.220Z,69.47
2019-03-23T08:54:39.216Z,67.27
2019-03-23T08:55:39.212Z,68.79
2019-03-23T08:56:39.304Z,69.23
2019-03-23T08:57:41.324Z,69.77
2019-03-23T08:58:39.176Z,70.51
2019-03-23T08:59:39.149Z,70.31
2019-03-23T09:00:39.152Z,70.51
2019-03-23T09:01:39.132Z,70.62
2019-03-23T09:02:39.122Z,71.12
2019-03-23T09:03:39.112Z,71.16
2019-03-23T09:04:39.105Z,71.36
2019-03-23T09:05:39.087Z,71.77
2019-03-23T09:06:39.082Z,71.36
2019-03-23T09:07:39.077Z,71.56
2019-03-23T09:08:39.050Z,71.36
2019-03-23T09:09:39.066Z,71.06
2019-03-23T09:10:39.042Z,71.12
2019-03-23T09:11:39.102Z,71.06
2019-03-23T09:12:39.068Z,71.87
2019-03-23T09:13:40.843Z,71.94
2019-03-23T09:14:38.985Z,71.36
2019-03-23T09:15:38.995Z,71.53
2019-03-23T09:16:38.980Z,71.73
2019-03-23T09:17:38.965Z,72.25
2019-03-23T09:18:38.997Z,71.23
2019-03-23T09:19:38.968Z,71.94
2019-03-23T09:20:38.919Z,70.92
2019-03-23T09:21:38.921Z,71.02
2019-03-23T09:22:38.912Z,71.64
2019-03-23T09:23:38.896Z,71.84
2019-03-23T09:24:38.908Z,71.94
2019-03-23T09:25:38.871Z,70.28
2019-03-23T09:26:38.856Z,71.12
2019-03-23T09:27:38.843Z,71.09
2019-03-23T09:28:38.845Z,70.38
2019-03-23T09:29:38.835Z,70.48
2019-03-23T09:30:38.830Z,70.79
2019-03-23T09:31:38.813Z,70.18
2019-03-23T09:32:38.793Z,70.35
2019-03-23T09:33:38.800Z,70.35
2019-03-23T09:34:38.777Z,69.53
2019-03-23T09:35:39.544Z,68.92
2019-03-23T09:36:38.961Z,68.92
2019-03-23T09:37:38.798Z,68.92
2019-03-23T09:38:38.755Z,68.99
2019-03-23T09:39:38.724Z,69.30
2019-03-23T09:40:38.720Z,69.13
2019-03-23T09:41:38.714Z,69.43
2019-03-23T09:42:38.680Z,69.70
2019-03-23T09:43:38.668Z,68.99
2019-03-23T09:44:38.701Z,68.89
2019-03-23T09:45:38.656Z,68.59
2019-03-23T09:46:38.910Z,68.59
2019-03-23T09:47:38.704Z,68.18
2019-03-23T09:48:38.638Z,67.84
2019-03-23T09:49:38.621Z,67.44
2019-03-23T09:50:38.604Z,67.33
2019-03-23T09:51:38.620Z,67.13
2019-03-23T09:52:38.662Z,67.00
2019-03-23T09:53:38.557Z,66.39
2019-03-23T09:54:38.544Z,66.49
2019-03-23T09:55:38.539Z,66.90
2019-03-23T09:56:38.565Z,65.68
2019-03-23T09:57:38.533Z,66.29
2019-03-23T09:58:38.523Z,66.80
2019-03-23T09:59:38.504Z,66.69
2019-03-23T10:00:38.485Z,65.88
2019-03-23T10:01:38.484Z,66.19
2019-03-23T10:02:38.465Z,66.36
2019-03-23T10:03:38.483Z,65.58
2019-03-23T10:04:38.450Z,66.49
2019-03-23T10:05:38.439Z,66.46
2019-03-23T10:06:38.421Z,65.85
2019-03-23T10:07:38.417Z,65.78
2019-03-23T10:08:38.392Z,65.95
2019-03-23T10:09:38.396Z,66.36
2019-03-23T10:10:38.409Z,66.26
2019-03-23T10:11:38.366Z,65.24
2019-03-23T10:12:38.384Z,65.62
2019-03-23T10:13:38.336Z,64.84
2019-03-23T10:14:38.362Z,65.01
2019-03-23T10:15:38.326Z,64.84
2019-03-23T10:16:38.308Z,64.91
2019-03-23T10:17:38.289Z,64.91
2019-03-23T10:18:38.293Z,64.91
2019-03-23T10:19:38.273Z,64.91
2019-03-23T10:20:38.282Z,65.11
2019-03-23T10:21:38.250Z,65.11
2019-03-23T10:22:38.237Z,65.11
2019-03-23T10:23:38.222Z,65.11
2019-03-23T10:24:38.212Z,64.58
2019-03-23T10:25:38.212Z,64.78
2019-03-23T10:26:38.198Z,64.78
2019-03-23T10:27:38.206Z,64.47
2019-03-23T10:28:38.187Z,63.46
2019-03-23T10:29:38.182Z,63.26
2019-03-23T10:30:38.159Z,63.26
2019-03-23T10:31:38.147Z,63.96
2019-03-23T10:32:38.120Z,62.95
2019-03-23T10:33:38.112Z,64.37
2019-03-23T10:34:38.100Z,63.06
2019-03-23T10:35:38.088Z,63.23
2019-03-23T10:36:38.098Z,63.63
2019-03-23T10:37:38.100Z,63.32
2019-03-23T10:38:38.065Z,62.82
2019-03-23T10:39:38.080Z,62.21
2019-03-23T10:40:38.047Z,61.78
2019-03-23T10:41:38.033Z,61.58
2019-03-23T10:42:38.036Z,60.97
2019-03-23T10:43:39.042Z,61.07
2019-03-23T10:44:38.007Z,61.27
2019-03-23T10:45:44.119Z,61.58
2019-03-23T10:46:38.986Z,61.78
2019-03-23T10:47:38.142Z,61.88
2019-03-23T10:48:38.007Z,61.78
2019-03-23T10:49:37.999Z,61.68
2019-03-23T10:50:37.923Z,61.37
2019-03-23T10:51:37.924Z,61.88
2019-03-23T10:52:37.908Z,61.78
2019-03-23T10:53:37.899Z,62.18
2019-03-23T10:54:37.906Z,61.27
2019-03-23T10:55:37.877Z,61.68
2019-03-23T10:56:37.851Z,61.68
2019-03-23T10:57:37.896Z,61.78
2019-03-23T10:58:37.841Z,62.08
2019-03-23T10:59:37.837Z,61.78
2019-03-23T11:00:37.843Z,61.95
2019-03-23T11:01:37.804Z,62.26
2019-03-23T11:02:37.789Z,61.75
2019-03-23T11:03:37.798Z,62.05
2019-03-23T11:04:37.789Z,61.85
2019-03-23T11:05:37.788Z,61.65
2019-03-23T11:06:37.746Z,61.75
2019-03-23T11:07:37.745Z,61.85
2019-03-23T11:08:37.726Z,62.46
2019-03-23T11:09:37.718Z,62.26
2019-03-23T11:10:41.789Z,62.15
2019-03-23T11:11:37.696Z,62.05
2019-03-23T11:12:37.672Z,62.15
2019-03-23T11:13:37.664Z,62.23
2019-03-23T11:14:37.660Z,62.23
2019-03-23T11:15:37.667Z,62.23
2019-03-23T11:16:37.663Z,62.33
2019-03-23T11:17:37.644Z,62.43
2019-03-23T11:18:37.884Z,62.84
2019-03-23T11:19:37.596Z,62.63
2019-03-23T11:20:37.603Z,62.63
2019-03-23T11:21:37.610Z,62.63
2019-03-23T11:22:37.621Z,62.33
2019-03-23T11:23:37.635Z,62.63
2019-03-23T11:24:37.557Z,63.01
2019-03-23T11:25:37.536Z,62.81
2019-03-23T11:26:37.676Z,62.30
2019-03-23T11:27:37.518Z,62.70
2019-03-23T11:28:37.548Z,61.90
2019-03-23T11:29:37.502Z,62.30
2019-03-23T11:30:37.535Z,62.93
2019-03-23T11:31:37.469Z,62.43
2019-03-23T11:32:37.473Z,61.90
2019-03-23T11:33:37.509Z,61.90
2019-03-23T11:34:37.447Z,61.11
2019-03-23T11:35:37.431Z,61.49
2019-03-23T11:36:37.419Z,60.81
2019-03-23T11:37:37.682Z,60.68
2019-03-23T11:38:37.402Z,60.20
2019-03-23T11:39:37.406Z,60.50
2019-03-23T11:40:37.541Z,59.49
2019-03-23T11:41:37.376Z,58.56
2019-03-23T11:42:37.363Z,58.56
2019-03-23T11:43:37.347Z,59.87
2019-03-23T11:44:37.373Z,59.67
2019-03-23T11:45:37.339Z,59.16
2019-03-23T11:46:37.309Z,58.45
2019-03-23T11:47:37.524Z,56.84
2019-03-23T11:48:37.379Z,58.45
2019-03-23T11:49:37.286Z,59.27
2019-03-23T11:50:37.287Z,59.87
2019-03-23T11:51:37.288Z,60.78
2019-03-23T11:52:37.252Z,61.49
2019-03-23T11:53:37.250Z,62.43
2019-03-23T11:54:37.235Z,62.66
2019-03-23T11:55:37.262Z,63.37
2019-03-23T11:56:37.288Z,63.09
2019-03-23T11:57:37.190Z,63.20
2019-03-23T11:58:37.183Z,62.99
2019-03-23T11:59:37.181Z,64.31
2019-03-23T12:00:37.170Z,64.21
2019-03-23T12:01:37.155Z,64.31
2019-03-23T12:02:37.150Z,64.41
2019-03-23T12:03:37.118Z,64.51
2019-03-23T12:04:37.114Z,64.75
2019-03-23T12:05:37.137Z,64.85
2019-03-23T12:06:37.103Z,64.85
2019-03-23T12:07:37.096Z,64.85
2019-03-23T12:08:37.074Z,65.05
2019-03-23T12:09:37.068Z,64.98
2019-03-23T12:10:37.065Z,65.39
2019-03-23T12:11:37.044Z,64.98
2019-03-23T12:12:37.037Z,65.28
2019-03-23T12:13:37.126Z,65.36
2019-03-23T12:14:37.001Z,64.95
2019-03-23T12:15:37.006Z,64.64
2019-03-23T12:16:37.009Z,64.75
2019-03-23T12:17:37.167Z,64.98
2019-03-23T12:18:36.972Z,65.24
2019-03-23T12:19:36.965Z,65.24
2019-03-23T12:20:36.983Z,65.17
2019-03-23T12:21:36.925Z,65.68
2019-03-23T12:22:37.006Z,66.19
2019-03-23T12:23:36.957Z,66.86
2019-03-23T12:24:37.017Z,67.84
2019-03-23T12:25:36.913Z,68.08
2019-03-23T12:26:36.921Z,67.57
2019-03-23T12:27:36.859Z,67.64
2019-03-23T12:28:36.870Z,67.47
2019-03-23T12:29:36.860Z,67.88
2019-03-23T12:30:36.843Z,68.21
2019-03-23T12:31:36.817Z,68.75
2019-03-23T12:32:36.850Z,68.85
2019-03-23T12:33:36.794Z,68.96
2019-03-23T12:34:36.781Z,69.26
2019-03-23T12:35:36.775Z,69.36
2019-03-23T12:36:36.770Z,68.62
2019-03-23T12:37:36.790Z,68.65
2019-03-23T12:38:36.746Z,68.85
2019-03-23T12:39:36.733Z,68.96
2019-03-23T12:40:36.728Z,68.55
2019-03-23T12:41:36.724Z,69.46
2019-03-23T12:42:36.692Z,68.55
2019-03-23T12:43:36.688Z,68.96
2019-03-23T12:44:36.690Z,68.65
2019-03-23T12:45:38.820Z,69.26
2019-03-23T12:46:36.677Z,69.16
2019-03-23T12:47:36.648Z,68.85
2019-03-23T12:48:36.626Z,68.55
2019-03-23T12:49:36.611Z,68.24
2019-03-23T12:50:36.604Z,68.04
2019-03-23T12:51:36.630Z,67.74
2019-03-23T12:52:36.594Z,67.33
2019-03-23T12:53:36.583Z,68.14
2019-03-23T12:54:36.572Z,67.16